sensor_id;sensor_type;location;lat;lon;timestamp;P1;durP1;ratioP1;P2;durP2;ratioP2
39128;SDS011;24864;49.940;19.770;2022-12-18T00:02:21;127.13;;;35.85;;
39128;SDS011;24864;49.940;19.770;2022-12-18T00:04:51;109.65;;;33.08;;
39128;SDS011;24864;49.940;19.770;2022-12-18T00:07:18;127.80;;;32.03;;
39128;SDS011;24864;49.940;19.770;2022-12-18T00:09:47;117.20;;;31.50;;
39128;SDS011;24864;49.940;19.770;2022-12-18T00:12:14;115.32;;;34.80;;
39128;SDS011;24864;49.940;19.770;2022-12-18T00:14:43;112.03;;;34.78;;
39128;SDS011;24864;49.940;19.770;2022-12-18T00:17:11;124.25;;;37.10;;
39128;SDS011;24864;49.940;19.770;2022-12-18T00:19:39;115.68;;;34.08;;
39128;SDS011;24864;49.940;19.770;2022-12-18T00:22:09;109.95;;;33.78;;
39128;SDS011;24864;49.940;19.770;2022-12-18T00:24:37;86.57;;;24.08;;
39128;SDS011;24864;49.940;19.770;2022-12-18T00:27:05;124.38;;;34.20;;
39128;SDS011;24864;49.940;19.770;2022-12-18T00:29:33;112.82;;;32.78;;
39128;SDS011;24864;49.940;19.770;2022-12-18T00:32:01;120.85;;;35.05;;
39128;SDS011;24864;49.940;19.770;2022-12-18T00:34:29;116.03;;;34.80;;
39128;SDS011;24864;49.940;19.770;2022-12-18T00:36:57;116.40;;;33.72;;
39128;SDS011;24864;49.940;19.770;2022-12-18T00:39:27;115.00;;;32.53;;
39128;SDS011;24864;49.940;19.770;2022-12-18T00:41:55;111.68;;;33.55;;
39128;SDS011;24864;49.940;19.770;2022-12-18T00:44:40;126.20;;;36.60;;
39128;SDS011;24864;49.940;19.770;2022-12-18T00:47:08;122.07;;;35.45;;
39128;SDS011;24864;49.940;19.770;2022-12-18T00:49:36;112.78;;;35.03;;
39128;SDS011;24864;49.940;19.770;2022-12-18T00:52:04;126.32;;;36.13;;
39128;SDS011;24864;49.940;19.770;2022-12-18T00:54:34;113.55;;;31.98;;
39128;SDS011;24864;49.940;19.770;2022-12-18T00:57:02;120.25;;;32.85;;
39128;SDS011;24864;49.940;19.770;2022-12-18T00:59:30;117.72;;;34.35;;
39128;SDS011;24864;49.940;19.770;2022-12-18T01:01:58;111.15;;;34.72;;
39128;SDS011;24864;49.940;19.770;2022-12-18T01:04:26;111.82;;;35.42;;
39128;SDS011;24864;49.940;19.770;2022-12-18T01:06:54;121.50;;;35.42;;
39128;SDS011;24864;49.940;19.770;2022-12-18T01:09:22;120.97;;;36.80;;
39128;SDS011;24864;49.940;19.770;2022-12-18T01:11:51;116.18;;;34.28;;
39128;SDS011;24864;49.940;19.770;2022-12-18T01:14:31;108.45;;;32.58;;
39128;SDS011;24864;49.940;19.770;2022-12-18T01:16:59;119.03;;;34.40;;
39128;SDS011;24864;49.940;19.770;2022-12-18T01:19:29;120.80;;;36.40;;
39128;SDS011;24864;49.940;19.770;2022-12-18T01:21:57;113.80;;;34.13;;
39128;SDS011;24864;49.940;19.770;2022-12-18T01:24:26;125.55;;;35.10;;
39128;SDS011;24864;49.940;19.770;2022-12-18T01:26:55;110.78;;;31.83;;
39128;SDS011;24864;49.940;19.770;2022-12-18T01:29:23;116.07;;;32.50;;
39128;SDS011;24864;49.940;19.770;2022-12-18T01:31:54;115.43;;;35.10;;
39128;SDS011;24864;49.940;19.770;2022-12-18T01:34:22;113.35;;;33.25;;
39128;SDS011;24864;49.940;19.770;2022-12-18T01:36:51;104.20;;;31.38;;
39128;SDS011;24864;49.940;19.770;2022-12-18T01:39:19;115.05;;;35.42;;
39128;SDS011;24864;49.940;19.770;2022-12-18T01:41:48;110.70;;;34.78;;
39128;SDS011;24864;49.940;19.770;2022-12-18T01:47:34;113.60;;;36.13;;
39128;SDS011;24864;49.940;19.770;2022-12-18T01:50:07;121.95;;;35.42;;
39128;SDS011;24864;49.940;19.770;2022-12-18T01:52:37;128.02;;;36.15;;
39128;SDS011;24864;49.940;19.770;2022-12-18T01:55:09;118.03;;;34.08;;
39128;SDS011;24864;49.940;19.770;2022-12-18T01:57:38;113.53;;;33.13;;
39128;SDS011;24864;49.940;19.770;2022-12-18T02:00:10;114.20;;;32.80;;
39128;SDS011;24864;49.940;19.770;2022-12-18T02:02:40;103.97;;;33.53;;
39128;SDS011;24864;49.940;19.770;2022-12-18T02:05:11;111.50;;;33.42;;
39128;SDS011;24864;49.940;19.770;2022-12-18T02:07:42;112.20;;;34.30;;
39128;SDS011;24864;49.940;19.770;2022-12-18T02:10:21;112.38;;;31.15;;
39128;SDS011;24864;49.940;19.770;2022-12-18T02:12:56;105.53;;;33.42;;
39128;SDS011;24864;49.940;19.770;2022-12-18T02:15:33;127.38;;;35.25;;
39128;SDS011;24864;49.940;19.770;2022-12-18T02:18:07;121.75;;;35.63;;
39128;SDS011;24864;49.940;19.770;2022-12-18T02:20:40;112.03;;;33.22;;
39128;SDS011;24864;49.940;19.770;2022-12-18T02:23:16;119.80;;;33.65;;
39128;SDS011;24864;49.940;19.770;2022-12-18T02:25:55;115.88;;;33.50;;
39128;SDS011;24864;49.940;19.770;2022-12-18T02:28:40;105.60;;;31.85;;
39128;SDS011;24864;49.940;19.770;2022-12-18T02:31:13;112.75;;;32.78;;
39128;SDS011;24864;49.940;19.770;2022-12-18T02:33:45;115.32;;;33.63;;
39128;SDS011;24864;49.940;19.770;2022-12-18T02:36:15;117.70;;;35.47;;
39128;SDS011;24864;49.940;19.770;2022-12-18T02:38:44;128.73;;;34.00;;
39128;SDS011;24864;49.940;19.770;2022-12-18T02:41:16;110.85;;;33.10;;
39128;SDS011;24864;49.940;19.770;2022-12-18T02:43:46;108.95;;;34.92;;
39128;SDS011;24864;49.940;19.770;2022-12-18T02:46:25;99.82;;;32.55;;
39128;SDS011;24864;49.940;19.770;2022-12-18T02:49:00;100.78;;;30.30;;
39128;SDS011;24864;49.940;19.770;2022-12-18T02:51:37;116.75;;;33.00;;
39128;SDS011;24864;49.940;19.770;2022-12-18T02:54:15;119.57;;;34.25;;
39128;SDS011;24864;49.940;19.770;2022-12-18T02:56:55;105.32;;;33.38;;
39128;SDS011;24864;49.940;19.770;2022-12-18T02:59:26;108.00;;;27.40;;
39128;SDS011;24864;49.940;19.770;2022-12-18T03:02:01;112.22;;;34.45;;
39128;SDS011;24864;49.940;19.770;2022-12-18T03:04:34;108.38;;;33.17;;
39128;SDS011;24864;49.940;19.770;2022-12-18T03:07:08;109.75;;;33.25;;
39128;SDS011;24864;49.940;19.770;2022-12-18T03:09:42;101.93;;;34.08;;
39128;SDS011;24864;49.940;19.770;2022-12-18T03:12:17;105.65;;;33.92;;
39128;SDS011;24864;49.940;19.770;2022-12-18T03:14:54;112.03;;;35.67;;
39128;SDS011;24864;49.940;19.770;2022-12-18T03:17:26;96.35;;;32.13;;
39128;SDS011;24864;49.940;19.770;2022-12-18T03:19:58;101.05;;;32.15;;
39128;SDS011;24864;49.940;19.770;2022-12-18T03:22:30;120.68;;;35.95;;
39128;SDS011;24864;49.940;19.770;2022-12-18T03:25:03;157.30;;;57.58;;
39128;SDS011;24864;49.940;19.770;2022-12-18T03:27:35;115.45;;;39.88;;
39128;SDS011;24864;49.940;19.770;2022-12-18T03:30:08;112.30;;;35.20;;
39128;SDS011;24864;49.940;19.770;2022-12-18T03:32:40;102.93;;;34.80;;
39128;SDS011;24864;49.940;19.770;2022-12-18T03:35:13;108.85;;;31.70;;
39128;SDS011;24864;49.940;19.770;2022-12-18T03:37:44;111.55;;;34.20;;
39128;SDS011;24864;49.940;19.770;2022-12-18T03:40:12;106.75;;;31.90;;
39128;SDS011;24864;49.940;19.770;2022-12-18T03:42:43;91.72;;;30.40;;
39128;SDS011;24864;49.940;19.770;2022-12-18T03:45:19;97.22;;;31.02;;
39128;SDS011;24864;49.940;19.770;2022-12-18T03:47:53;104.95;;;33.25;;
39128;SDS011;24864;49.940;19.770;2022-12-18T03:50:29;93.07;;;27.45;;
39128;SDS011;24864;49.940;19.770;2022-12-18T03:53:08;108.15;;;30.52;;
39128;SDS011;24864;49.940;19.770;2022-12-18T03:55:44;102.88;;;31.52;;
39128;SDS011;24864;49.940;19.770;2022-12-18T03:58:17;110.55;;;31.23;;
39128;SDS011;24864;49.940;19.770;2022-12-18T04:00:48;106.70;;;32.33;;
39128;SDS011;24864;49.940;19.770;2022-12-18T04:03:19;107.10;;;33.08;;
39128;SDS011;24864;49.940;19.770;2022-12-18T04:05:52;106.13;;;30.30;;
39128;SDS011;24864;49.940;19.770;2022-12-18T04:08:23;114.07;;;31.60;;
39128;SDS011;24864;49.940;19.770;2022-12-18T04:10:52;102.05;;;30.00;;
39128;SDS011;24864;49.940;19.770;2022-12-18T04:13:27;97.32;;;29.55;;
39128;SDS011;24864;49.940;19.770;2022-12-18T04:15:56;101.18;;;31.85;;
39128;SDS011;24864;49.940;19.770;2022-12-18T04:18:24;98.32;;;30.63;;
39128;SDS011;24864;49.940;19.770;2022-12-18T04:20:53;98.72;;;29.63;;
39128;SDS011;24864;49.940;19.770;2022-12-18T04:23:21;105.90;;;32.40;;
39128;SDS011;24864;49.940;19.770;2022-12-18T04:25:49;102.80;;;32.97;;
39128;SDS011;24864;49.940;19.770;2022-12-18T04:28:17;106.55;;;31.60;;
39128;SDS011;24864;49.940;19.770;2022-12-18T04:30:47;102.15;;;30.35;;
39128;SDS011;24864;49.940;19.770;2022-12-18T04:33:16;106.60;;;31.92;;
39128;SDS011;24864;49.940;19.770;2022-12-18T04:35:44;103.10;;;30.13;;
39128;SDS011;24864;49.940;19.770;2022-12-18T04:38:13;109.47;;;33.63;;
39128;SDS011;24864;49.940;19.770;2022-12-18T04:40:40;115.63;;;34.90;;
39128;SDS011;24864;49.940;19.770;2022-12-18T04:43:09;118.65;;;33.60;;
39128;SDS011;24864;49.940;19.770;2022-12-18T04:45:37;117.45;;;31.13;;
39128;SDS011;24864;49.940;19.770;2022-12-18T04:48:07;113.38;;;33.58;;
39128;SDS011;24864;49.940;19.770;2022-12-18T04:50:36;100.47;;;31.67;;
39128;SDS011;24864;49.940;19.770;2022-12-18T04:53:04;119.47;;;33.55;;
39128;SDS011;24864;49.940;19.770;2022-12-18T04:55:32;104.20;;;33.03;;
39128;SDS011;24864;49.940;19.770;2022-12-18T04:58:00;116.50;;;34.60;;
39128;SDS011;24864;49.940;19.770;2022-12-18T05:00:28;125.10;;;34.10;;
39128;SDS011;24864;49.940;19.770;2022-12-18T05:02:56;114.50;;;33.75;;
39128;SDS011;24864;49.940;19.770;2022-12-18T05:05:25;114.20;;;35.70;;
39128;SDS011;24864;49.940;19.770;2022-12-18T05:07:53;114.70;;;34.50;;
39128;SDS011;24864;49.940;19.770;2022-12-18T05:10:21;119.13;;;33.38;;
39128;SDS011;24864;49.940;19.770;2022-12-18T05:12:49;117.70;;;33.72;;
39128;SDS011;24864;49.940;19.770;2022-12-18T05:15:27;121.07;;;35.25;;
39128;SDS011;24864;49.940;19.770;2022-12-18T05:17:56;111.68;;;33.42;;
39128;SDS011;24864;49.940;19.770;2022-12-18T05:20:26;118.70;;;32.08;;
39128;SDS011;24864;49.940;19.770;2022-12-18T05:22:55;100.80;;;31.20;;
39128;SDS011;24864;49.940;19.770;2022-12-18T05:25:23;127.65;;;35.13;;
39128;SDS011;24864;49.940;19.770;2022-12-18T05:27:51;127.18;;;32.35;;
39128;SDS011;24864;49.940;19.770;2022-12-18T05:30:19;120.90;;;34.13;;
39128;SDS011;24864;49.940;19.770;2022-12-18T05:32:47;111.63;;;33.20;;
39128;SDS011;24864;49.940;19.770;2022-12-18T05:35:15;120.97;;;34.28;;
39128;SDS011;24864;49.940;19.770;2022-12-18T05:37:44;111.05;;;32.97;;
39128;SDS011;24864;49.940;19.770;2022-12-18T05:40:13;105.20;;;30.40;;
39128;SDS011;24864;49.940;19.770;2022-12-18T05:42:41;106.78;;;31.92;;
39128;SDS011;24864;49.940;19.770;2022-12-18T05:45:09;113.85;;;32.58;;
39128;SDS011;24864;49.940;19.770;2022-12-18T05:47:37;108.80;;;29.55;;
39128;SDS011;24864;49.940;19.770;2022-12-18T05:50:05;110.75;;;31.63;;
39128;SDS011;24864;49.940;19.770;2022-12-18T05:52:35;106.60;;;29.50;;
39128;SDS011;24864;49.940;19.770;2022-12-18T05:55:04;93.90;;;29.08;;
39128;SDS011;24864;49.940;19.770;2022-12-18T05:57:32;95.43;;;29.08;;
39128;SDS011;24864;49.940;19.770;2022-12-18T06:00:00;103.85;;;27.70;;
39128;SDS011;24864;49.940;19.770;2022-12-18T06:02:29;97.90;;;27.92;;
39128;SDS011;24864;49.940;19.770;2022-12-18T06:04:57;103.20;;;31.70;;
39128;SDS011;24864;49.940;19.770;2022-12-18T06:07:25;92.32;;;27.92;;
39128;SDS011;24864;49.940;19.770;2022-12-18T06:09:53;108.95;;;31.42;;
39128;SDS011;24864;49.940;19.770;2022-12-18T06:12:22;100.75;;;29.80;;
39128;SDS011;24864;49.940;19.770;2022-12-18T06:14:50;97.43;;;29.10;;
39128;SDS011;24864;49.940;19.770;2022-12-18T06:17:18;92.68;;;27.73;;
39128;SDS011;24864;49.940;19.770;2022-12-18T06:19:46;102.80;;;28.45;;
39128;SDS011;24864;49.940;19.770;2022-12-18T06:22:14;96.72;;;29.02;;
39128;SDS011;24864;49.940;19.770;2022-12-18T06:24:43;99.55;;;27.98;;
39128;SDS011;24864;49.940;19.770;2022-12-18T06:27:11;90.43;;;28.13;;
39128;SDS011;24864;49.940;19.770;2022-12-18T06:29:40;92.43;;;28.17;;
39128;SDS011;24864;49.940;19.770;2022-12-18T06:32:09;100.10;;;31.77;;
39128;SDS011;24864;49.940;19.770;2022-12-18T06:34:37;98.53;;;31.38;;
39128;SDS011;24864;49.940;19.770;2022-12-18T06:37:05;97.28;;;28.30;;
39128;SDS011;24864;49.940;19.770;2022-12-18T06:39:33;97.88;;;29.95;;
39128;SDS011;24864;49.940;19.770;2022-12-18T06:42:01;95.95;;;30.00;;
39128;SDS011;24864;49.940;19.770;2022-12-18T06:44:30;100.05;;;29.98;;
39128;SDS011;24864;49.940;19.770;2022-12-18T06:47:00;103.72;;;32.38;;
39128;SDS011;24864;49.940;19.770;2022-12-18T06:49:27;152.85;;;62.92;;
39128;SDS011;24864;49.940;19.770;2022-12-18T06:51:56;114.53;;;32.42;;
39128;SDS011;24864;49.940;19.770;2022-12-18T06:54:24;106.90;;;35.88;;
39128;SDS011;24864;49.940;19.770;2022-12-18T06:56:52;108.53;;;31.00;;
39128;SDS011;24864;49.940;19.770;2022-12-18T06:59:20;91.00;;;28.38;;
39128;SDS011;24864;49.940;19.770;2022-12-18T07:01:48;104.25;;;30.02;;
39128;SDS011;24864;49.940;19.770;2022-12-18T07:04:17;103.45;;;30.52;;
39128;SDS011;24864;49.940;19.770;2022-12-18T07:06:45;104.60;;;31.45;;
39128;SDS011;24864;49.940;19.770;2022-12-18T07:09:13;101.40;;;30.02;;
39128;SDS011;24864;49.940;19.770;2022-12-18T07:11:41;110.55;;;34.00;;
39128;SDS011;24864;49.940;19.770;2022-12-18T07:14:09;141.65;;;46.90;;
39128;SDS011;24864;49.940;19.770;2022-12-18T07:16:37;115.05;;;36.30;;
39128;SDS011;24864;49.940;19.770;2022-12-18T07:19:05;112.75;;;32.30;;
39128;SDS011;24864;49.940;19.770;2022-12-18T07:21:34;106.82;;;36.15;;
39128;SDS011;24864;49.940;19.770;2022-12-18T07:24:02;98.43;;;31.70;;
39128;SDS011;24864;49.940;19.770;2022-12-18T07:26:31;103.78;;;30.27;;
39128;SDS011;24864;49.940;19.770;2022-12-18T07:28:59;111.82;;;32.47;;
39128;SDS011;24864;49.940;19.770;2022-12-18T07:31:27;94.07;;;30.25;;
39128;SDS011;24864;49.940;19.770;2022-12-18T07:33:55;92.10;;;30.38;;
39128;SDS011;24864;49.940;19.770;2022-12-18T07:36:23;100.03;;;32.70;;
39128;SDS011;24864;49.940;19.770;2022-12-18T07:38:53;92.03;;;31.98;;
39128;SDS011;24864;49.940;19.770;2022-12-18T07:41:21;92.00;;;29.02;;
39128;SDS011;24864;49.940;19.770;2022-12-18T07:43:49;97.38;;;32.72;;
39128;SDS011;24864;49.940;19.770;2022-12-18T07:46:17;95.35;;;30.35;;
39128;SDS011;24864;49.940;19.770;2022-12-18T07:48:45;86.07;;;28.08;;
39128;SDS011;24864;49.940;19.770;2022-12-18T07:51:16;102.30;;;29.85;;
39128;SDS011;24864;49.940;19.770;2022-12-18T07:53:44;104.78;;;33.15;;
39128;SDS011;24864;49.940;19.770;2022-12-18T07:56:19;101.25;;;32.05;;
39128;SDS011;24864;49.940;19.770;2022-12-18T07:58:53;105.82;;;33.85;;
39128;SDS011;24864;49.940;19.770;2022-12-18T08:01:22;104.07;;;31.45;;
39128;SDS011;24864;49.940;19.770;2022-12-18T08:03:50;134.70;;;44.65;;
39128;SDS011;24864;49.940;19.770;2022-12-18T08:06:19;128.27;;;43.60;;
39128;SDS011;24864;49.940;19.770;2022-12-18T08:08:50;107.25;;;32.97;;
39128;SDS011;24864;49.940;19.770;2022-12-18T08:11:21;101.72;;;31.70;;
39128;SDS011;24864;49.940;19.770;2022-12-18T08:13:50;99.50;;;29.58;;
39128;SDS011;24864;49.940;19.770;2022-12-18T08:16:19;95.43;;;31.13;;
39128;SDS011;24864;49.940;19.770;2022-12-18T08:18:47;111.85;;;32.20;;
39128;SDS011;24864;49.940;19.770;2022-12-18T08:21:17;106.85;;;33.30;;
39128;SDS011;24864;49.940;19.770;2022-12-18T08:23:47;96.70;;;33.28;;
39128;SDS011;24864;49.940;19.770;2022-12-18T08:26:17;95.45;;;31.35;;
39128;SDS011;24864;49.940;19.770;2022-12-18T08:28:47;110.85;;;36.58;;
39128;SDS011;24864;49.940;19.770;2022-12-18T08:31:16;96.47;;;32.78;;
39128;SDS011;24864;49.940;19.770;2022-12-18T08:33:45;91.70;;;29.30;;
39128;SDS011;24864;49.940;19.770;2022-12-18T08:36:15;94.80;;;28.80;;
39128;SDS011;24864;49.940;19.770;2022-12-18T08:38:43;91.60;;;31.02;;
39128;SDS011;24864;49.940;19.770;2022-12-18T08:41:13;100.38;;;31.38;;
39128;SDS011;24864;49.940;19.770;2022-12-18T08:43:43;94.05;;;32.55;;
39128;SDS011;24864;49.940;19.770;2022-12-18T08:46:33;102.82;;;34.08;;
39128;SDS011;24864;49.940;19.770;2022-12-18T08:49:05;101.38;;;30.73;;
39128;SDS011;24864;49.940;19.770;2022-12-18T08:51:34;168.98;;;58.25;;
39128;SDS011;24864;49.940;19.770;2022-12-18T08:54:02;285.02;;;102.00;;
39128;SDS011;24864;49.940;19.770;2022-12-18T08:56:32;153.93;;;54.70;;
39128;SDS011;24864;49.940;19.770;2022-12-18T08:59:01;105.43;;;32.05;;
39128;SDS011;24864;49.940;19.770;2022-12-18T09:01:29;97.63;;;32.13;;
39128;SDS011;24864;49.940;19.770;2022-12-18T09:03:59;103.88;;;33.38;;
39128;SDS011;24864;49.940;19.770;2022-12-18T09:06:27;97.78;;;31.45;;
39128;SDS011;24864;49.940;19.770;2022-12-18T09:08:54;105.28;;;33.58;;
39128;SDS011;24864;49.940;19.770;2022-12-18T09:11:23;101.10;;;36.08;;
39128;SDS011;24864;49.940;19.770;2022-12-18T09:13:54;108.00;;;35.60;;
39128;SDS011;24864;49.940;19.770;2022-12-18T09:16:23;100.93;;;32.63;;
39128;SDS011;24864;49.940;19.770;2022-12-18T09:18:59;109.55;;;34.35;;
39128;SDS011;24864;49.940;19.770;2022-12-18T09:21:29;107.20;;;34.25;;
39128;SDS011;24864;49.940;19.770;2022-12-18T09:24:02;108.00;;;34.45;;
39128;SDS011;24864;49.940;19.770;2022-12-18T09:26:34;111.22;;;34.78;;
39128;SDS011;24864;49.940;19.770;2022-12-18T09:29:03;106.80;;;37.03;;
39128;SDS011;24864;49.940;19.770;2022-12-18T09:31:31;108.20;;;37.42;;
39128;SDS011;24864;49.940;19.770;2022-12-18T09:34:00;103.93;;;35.95;;
39128;SDS011;24864;49.940;19.770;2022-12-18T09:36:28;106.53;;;34.97;;
39128;SDS011;24864;49.940;19.770;2022-12-18T09:38:56;98.25;;;36.00;;
39128;SDS011;24864;49.940;19.770;2022-12-18T09:41:39;103.38;;;34.40;;
39128;SDS011;24864;49.940;19.770;2022-12-18T09:44:13;107.68;;;36.65;;
39128;SDS011;24864;49.940;19.770;2022-12-18T09:46:49;102.60;;;34.20;;
39128;SDS011;24864;49.940;19.770;2022-12-18T09:49:25;106.90;;;35.78;;
39128;SDS011;24864;49.940;19.770;2022-12-18T09:51:59;107.25;;;36.33;;
39128;SDS011;24864;49.940;19.770;2022-12-18T09:54:31;120.55;;;37.53;;
39128;SDS011;24864;49.940;19.770;2022-12-18T09:57:03;111.63;;;38.30;;
39128;SDS011;24864;49.940;19.770;2022-12-18T09:59:33;106.05;;;36.83;;
39128;SDS011;24864;49.940;19.770;2022-12-18T10:02:12;97.32;;;36.15;;
39128;SDS011;24864;49.940;19.770;2022-12-18T10:04:44;114.78;;;38.20;;
39128;SDS011;24864;49.940;19.770;2022-12-18T10:07:22;112.35;;;39.13;;
39128;SDS011;24864;49.940;19.770;2022-12-18T10:09:58;105.07;;;37.22;;
39128;SDS011;24864;49.940;19.770;2022-12-18T10:12:33;107.75;;;37.30;;
39128;SDS011;24864;49.940;19.770;2022-12-18T10:15:12;111.78;;;38.92;;
39128;SDS011;24864;49.940;19.770;2022-12-18T10:17:49;118.82;;;39.53;;
39128;SDS011;24864;49.940;19.770;2022-12-18T10:20:27;113.70;;;39.95;;
39128;SDS011;24864;49.940;19.770;2022-12-18T10:23:00;117.05;;;41.72;;
39128;SDS011;24864;49.940;19.770;2022-12-18T10:25:34;125.25;;;41.75;;
39128;SDS011;24864;49.940;19.770;2022-12-18T10:28:09;120.40;;;42.60;;
39128;SDS011;24864;49.940;19.770;2022-12-18T10:30:40;118.65;;;43.47;;
39128;SDS011;24864;49.940;19.770;2022-12-18T10:33:10;116.35;;;43.78;;
39128;SDS011;24864;49.940;19.770;2022-12-18T10:35:41;113.00;;;42.63;;
39128;SDS011;24864;49.940;19.770;2022-12-18T10:38:20;117.83;;;41.17;;
39128;SDS011;24864;49.940;19.770;2022-12-18T10:40:51;107.95;;;40.75;;
39128;SDS011;24864;49.940;19.770;2022-12-18T10:43:22;114.00;;;41.70;;
39128;SDS011;24864;49.940;19.770;2022-12-18T10:46:02;120.10;;;42.83;;
39128;SDS011;24864;49.940;19.770;2022-12-18T10:48:40;129.60;;;44.75;;
39128;SDS011;24864;49.940;19.770;2022-12-18T10:51:22;111.88;;;42.80;;
39128;SDS011;24864;49.940;19.770;2022-12-18T10:53:54;115.10;;;40.85;;
39128;SDS011;24864;49.940;19.770;2022-12-18T10:56:24;116.40;;;42.78;;
39128;SDS011;24864;49.940;19.770;2022-12-18T10:58:55;115.53;;;43.25;;
39128;SDS011;24864;49.940;19.770;2022-12-18T11:01:26;123.18;;;45.03;;
39128;SDS011;24864;49.940;19.770;2022-12-18T11:03:59;115.25;;;42.92;;
39128;SDS011;24864;49.940;19.770;2022-12-18T11:06:31;123.00;;;46.60;;
39128;SDS011;24864;49.940;19.770;2022-12-18T11:09:01;121.28;;;45.55;;
39128;SDS011;24864;49.940;19.770;2022-12-18T11:11:40;110.53;;;44.53;;
39128;SDS011;24864;49.940;19.770;2022-12-18T11:14:17;118.28;;;44.83;;
39128;SDS011;24864;49.940;19.770;2022-12-18T11:16:49;128.30;;;46.88;;
39128;SDS011;24864;49.940;19.770;2022-12-18T11:19:39;126.55;;;48.92;;
39128;SDS011;24864;49.940;19.770;2022-12-18T11:22:19;122.78;;;46.75;;
39128;SDS011;24864;49.940;19.770;2022-12-18T11:24:52;134.07;;;49.00;;
39128;SDS011;24864;49.940;19.770;2022-12-18T11:27:46;130.82;;;44.70;;
39128;SDS011;24864;49.940;19.770;2022-12-18T11:30:21;114.57;;;45.00;;
39128;SDS011;24864;49.940;19.770;2022-12-18T11:32:50;132.32;;;47.00;;
39128;SDS011;24864;49.940;19.770;2022-12-18T11:35:25;120.35;;;44.00;;
39128;SDS011;24864;49.940;19.770;2022-12-18T11:38:04;129.43;;;47.85;;
39128;SDS011;24864;49.940;19.770;2022-12-18T11:40:46;138.25;;;47.30;;
39128;SDS011;24864;49.940;19.770;2022-12-18T11:43:21;125.07;;;45.20;;
39128;SDS011;24864;49.940;19.770;2022-12-18T11:45:56;127.45;;;44.20;;
39128;SDS011;24864;49.940;19.770;2022-12-18T11:48:30;128.75;;;46.15;;
39128;SDS011;24864;49.940;19.770;2022-12-18T11:53:33;124.97;;;42.78;;
39128;SDS011;24864;49.940;19.770;2022-12-18T11:56:07;132.80;;;44.35;;
39128;SDS011;24864;49.940;19.770;2022-12-18T11:58:50;127.10;;;42.47;;
39128;SDS011;24864;49.940;19.770;2022-12-18T12:01:32;125.13;;;41.28;;
39128;SDS011;24864;49.940;19.770;2022-12-18T12:04:21;122.63;;;42.08;;
39128;SDS011;24864;49.940;19.770;2022-12-18T12:07:07;119.38;;;43.47;;
39128;SDS011;24864;49.940;19.770;2022-12-18T12:09:47;110.93;;;38.47;;
39128;SDS011;24864;49.940;19.770;2022-12-18T12:12:26;110.18;;;38.72;;
39128;SDS011;24864;49.940;19.770;2022-12-18T12:15:18;108.03;;;35.65;;
39128;SDS011;24864;49.940;19.770;2022-12-18T12:17:53;106.30;;;38.03;;
39128;SDS011;24864;49.940;19.770;2022-12-18T12:20:28;105.75;;;37.55;;
39128;SDS011;24864;49.940;19.770;2022-12-18T12:25:44;110.00;;;41.20;;
39128;SDS011;24864;49.940;19.770;2022-12-18T12:28:19;118.40;;;40.30;;
39128;SDS011;24864;49.940;19.770;2022-12-18T12:31:01;122.18;;;41.97;;
39128;SDS011;24864;49.940;19.770;2022-12-18T12:33:36;133.20;;;47.60;;
39128;SDS011;24864;49.940;19.770;2022-12-18T12:36:16;134.48;;;48.38;;
39128;SDS011;24864;49.940;19.770;2022-12-18T12:39:05;114.70;;;40.67;;
39128;SDS011;24864;49.940;19.770;2022-12-18T12:41:38;117.35;;;41.40;;
39128;SDS011;24864;49.940;19.770;2022-12-18T12:44:27;120.07;;;42.10;;
39128;SDS011;24864;49.940;19.770;2022-12-18T12:46:59;125.75;;;45.25;;
39128;SDS011;24864;49.940;19.770;2022-12-18T12:49:35;130.65;;;47.15;;
39128;SDS011;24864;49.940;19.770;2022-12-18T12:52:09;127.80;;;48.80;;
39128;SDS011;24864;49.940;19.770;2022-12-18T12:54:41;143.48;;;52.28;;
39128;SDS011;24864;49.940;19.770;2022-12-18T12:57:13;143.45;;;53.30;;
39128;SDS011;24864;49.940;19.770;2022-12-18T12:59:50;119.82;;;41.30;;
39128;SDS011;24864;49.940;19.770;2022-12-18T13:02:28;113.95;;;40.05;;
39128;SDS011;24864;49.940;19.770;2022-12-18T13:05:04;119.68;;;40.90;;
39128;SDS011;24864;49.940;19.770;2022-12-18T13:07:37;121.00;;;39.30;;
39128;SDS011;24864;49.940;19.770;2022-12-18T13:13:01;119.45;;;38.83;;
39128;SDS011;24864;49.940;19.770;2022-12-18T13:15:36;121.68;;;39.78;;
39128;SDS011;24864;49.940;19.770;2022-12-18T13:18:19;113.28;;;37.97;;
39128;SDS011;24864;49.940;19.770;2022-12-18T13:20:50;108.20;;;37.53;;
39128;SDS011;24864;49.940;19.770;2022-12-18T13:23:31;122.43;;;43.08;;
39128;SDS011;24864;49.940;19.770;2022-12-18T13:29:03;134.23;;;46.75;;
39128;SDS011;24864;49.940;19.770;2022-12-18T13:34:28;121.88;;;43.42;;
39128;SDS011;24864;49.940;19.770;2022-12-18T13:40:00;159.25;;;53.58;;
39128;SDS011;24864;49.940;19.770;2022-12-18T13:42:34;212.93;;;73.85;;
39128;SDS011;24864;49.940;19.770;2022-12-18T13:48:14;163.35;;;54.47;;
39128;SDS011;24864;49.940;19.770;2022-12-18T13:50:48;148.05;;;50.13;;
39128;SDS011;24864;49.940;19.770;2022-12-18T13:53:19;148.98;;;49.17;;
39128;SDS011;24864;49.940;19.770;2022-12-18T13:55:51;145.10;;;48.08;;
39128;SDS011;24864;49.940;19.770;2022-12-18T13:58:19;181.95;;;61.53;;
39128;SDS011;24864;49.940;19.770;2022-12-18T14:00:49;149.20;;;55.50;;
39128;SDS011;24864;49.940;19.770;2022-12-18T14:03:19;169.45;;;62.60;;
39128;SDS011;24864;49.940;19.770;2022-12-18T14:05:56;229.82;;;83.60;;
39128;SDS011;24864;49.940;19.770;2022-12-18T14:08:30;353.60;;;138.38;;
39128;SDS011;24864;49.940;19.770;2022-12-18T14:11:01;354.42;;;132.98;;
39128;SDS011;24864;49.940;19.770;2022-12-18T14:13:34;447.55;;;176.25;;
39128;SDS011;24864;49.940;19.770;2022-12-18T14:16:06;394.63;;;155.30;;
39128;SDS011;24864;49.940;19.770;2022-12-18T14:18:38;419.83;;;167.77;;
39128;SDS011;24864;49.940;19.770;2022-12-18T14:21:16;467.80;;;185.15;;
39128;SDS011;24864;49.940;19.770;2022-12-18T14:23:48;461.50;;;192.50;;
39128;SDS011;24864;49.940;19.770;2022-12-18T14:26:20;429.25;;;176.40;;
39128;SDS011;24864;49.940;19.770;2022-12-18T14:28:50;298.70;;;118.55;;
39128;SDS011;24864;49.940;19.770;2022-12-18T14:31:22;249.45;;;98.45;;
39128;SDS011;24864;49.940;19.770;2022-12-18T14:33:52;256.27;;;101.55;;
39128;SDS011;24864;49.940;19.770;2022-12-18T14:36:21;258.25;;;100.28;;
39128;SDS011;24864;49.940;19.770;2022-12-18T14:38:51;266.20;;;103.55;;
39128;SDS011;24864;49.940;19.770;2022-12-18T14:41:21;260.67;;;103.20;;
39128;SDS011;24864;49.940;19.770;2022-12-18T14:43:50;259.05;;;100.32;;
39128;SDS011;24864;49.940;19.770;2022-12-18T14:46:27;245.85;;;94.30;;
39128;SDS011;24864;49.940;19.770;2022-12-18T14:48:59;209.00;;;74.18;;